Time;durP1;ratioP1;P1;durP2;ratioP2;P2;SDS_P1;SDS_P2;PMS_P1;PMS_P2;Temp;Humidity;BMP_temperature;BMP_pressure;BME280_temperature;BME280_humidity;BME280_pressure;Samples;Min_cycle;Max_cycle;Signal;HPM_P1;HPM_P2
2023/09/10 00:02:13;;;;;;;;;13.75;11.50;;;;;28.58;39.40;101125.28;5058251;28;45588;-58
2023/09/10 00:04:39;;;;;;;;;11.25;8.00;;;;;28.53;38.89;101127.97;5058446;28;46321;-58
2023/09/10 00:07:04;;;;;;;;;11.75;11.75;;;;;28.58;39.45;101130.78;5058541;28;45329;-57
2023/09/10 00:09:29;;;;;;;;;13.25;12.00;;;;;28.54;39.71;101141.41;5058307;28;45496;-56
2023/09/10 00:11:55;;;;;;;;;12.00;10.75;;;;;28.52;39.10;101131.78;5058465;28;45370;-58
2023/09/10 00:14:20;;;;;;;;;13.75;11.00;;;;;28.48;39.08;101130.63;5058191;28;46594;-59
2023/09/10 00:16:45;;;;;;;;;13.00;11.00;;;;;28.36;39.47;101128.06;5058475;28;45384;-57
2023/09/10 00:19:15;;;;;;;;;12.50;11.25;;;;;28.31;39.64;101128.78;5058450;28;45313;-59
2023/09/10 00:21:40;;;;;;;;;11.00;9.80;;;;;28.03;39.39;101091.53;5058435;28;45211;-57
2023/09/10 00:24:06;;;;;;;;;11.25;9.25;;;;;28.26;39.87;101133.38;5058209;28;46181;-59
2023/09/10 00:26:34;;;;;;;;;12.25;10.50;;;;;28.24;39.67;101127.34;5058348;28;45245;-57
2023/09/10 00:28:59;;;;;;;;;13.00;9.40;;;;;28.19;39.80;101136.31;5056907;28;45371;-58
2023/09/10 00:31:24;;;;;;;;;12.50;11.00;;;;;28.14;40.17;101141.69;5058467;28;45239;-57
2023/09/10 00:33:50;;;;;;;;;13.50;10.75;;;;;28.14;39.65;101132.66;5057945;28;46183;-57
2023/09/10 00:36:15;;;;;;;;;14.75;10.75;;;;;28.06;40.36;101136.66;5058154;28;45499;-58
2023/09/10 00:38:40;;;;;;;;;11.00;11.00;;;;;28.02;40.64;101136.38;5058140;28;45514;-57
2023/09/10 00:41:07;;;;;;;;;10.25;10.25;;;;;27.99;40.29;101136.88;5056934;28;45489;-57
2023/09/10 00:43:33;;;;;;;;;14.60;12.00;;;;;28.00;40.36;101124.84;5057971;28;45353;-59
2023/09/10 00:45:59;;;;;;;;;13.50;10.75;;;;;27.99;39.96;101130.56;5057357;28;45447;-58
2023/09/10 00:48:24;;;;;;;;;15.50;10.50;;;;;27.97;40.61;101138.19;5058252;28;45271;-56
2023/09/10 00:50:50;;;;;;;;;11.00;11.00;;;;;27.96;40.63;101139.28;5058296;28;45262;-59
2023/09/10 00:53:18;;;;;;;;;11.50;10.25;;;;;27.94;40.23;101139.53;5057759;28;45384;-58
2023/09/10 00:55:44;;;;;;;;;12.60;10.60;;;;;27.96;40.58;101137.34;5057770;28;45511;-57
2023/09/10 00:58:09;;;;;;;;;14.00;10.50;;;;;27.93;40.85;101132.38;5058185;28;45430;-59
2023/09/10 01:00:35;;;;;;;;;15.75;12.25;;;;;27.91;40.98;101131.81;5058059;28;45429;-58
2023/09/10 01:03:01;;;;;;;;;10.50;9.75;;;;;27.89;40.33;101144.91;5057041;28;45376;-57
2023/09/10 01:05:26;;;;;;;;;11.40;10.60;;;;;27.85;41.13;101138.28;5057576;28;45349;-57
2023/09/10 01:07:53;;;;;;;;;13.00;11.00;;;;;27.82;40.61;101139.63;5057982;28;45268;-59
2023/09/10 01:10:25;;;;;;;;;10.60;10.40;;;;;27.84;40.72;101140.19;5057594;28;45314;-57
2023/09/10 01:13:19;;;;;;;;;8.80;8.80;;;;;27.79;40.94;101142.03;5057287;28;46412;-58
2023/09/10 01:16:04;;;;;;;;;11.40;9.40;;;;;27.76;40.96;101142.53;4976076;28;46261;-57
2023/09/10 01:18:42;;;;;;;;;11.40;8.60;;;;;27.74;41.05;101141.97;4975843;28;45517;-56
2023/09/10 01:21:17;;;;;;;;;12.00;12.00;;;;;27.71;41.01;101145.16;4975926;28;45478;-58
2023/09/10 01:24:36;;;;;;;;;11.80;10.40;;;;;27.70;41.48;101146.25;4975413;28;46524;-58
2023/09/10 01:27:01;;;;;;;;;12.20;9.20;;;;;27.69;41.44;101147.34;4917795;28;45356;-59
2023/09/10 01:29:27;;;;;;;;;11.00;9.50;;;;;27.63;41.02;101135.47;4917460;28;45410;-58
2023/09/10 01:31:59;;;;;;;;;10.50;8.00;;;;;27.65;41.06;101151.66;4917776;28;45414;-57
2023/09/10 01:34:29;;;;;;;;;13.80;9.60;;;;;27.64;41.04;101141.78;4917476;28;46346;-56
2023/09/10 01:37:05;;;;;;;;;8.60;8.60;;;;;27.62;40.99;101142.03;4917488;28;45482;-57
2023/09/10 01:39:40;;;;;;;;;12.60;10.80;;;;;27.57;41.14;101139.22;4917807;28;45427;-58
2023/09/10 01:42:07;;;;;;;;;9.40;9.40;;;;;27.61;41.06;101143.13;4917930;28;45989;-55
2023/09/10 01:44:34;;;;;;;;;13.60;11.20;;;;;27.56;41.62;101143.88;4917521;28;45682;-58
2023/09/10 01:47:00;;;;;;;;;9.40;9.20;;;;;27.58;41.41;101149.91;4917467;28;45484;-57
2023/09/10 01:49:26;;;;;;;;;11.60;10.40;;;;;27.57;41.66;101141.97;4917447;28;45427;-57
2023/09/10 01:51:52;;;;;;;;;14.00;11.00;;;;;27.61;41.46;101154.06;4930525;28;45550;-56
2023/09/10 01:54:17;;;;;;;;;12.50;10.75;;;;;27.60;41.34;101147.75;4994662;28;45548;-54
2023/09/10 01:56:42;;;;;;;;;13.25;12.00;;;;;27.59;41.75;101148.81;4994669;28;45416;-57
2023/09/10 01:59:08;;;;;;;;;10.25;8.75;;;;;27.58;41.82;101147.16;4994775;28;45516;-58
2023/09/10 02:01:33;;;;;;;;;13.00;12.00;;;;;27.56;41.88;101149.34;5047998;28;45751;-57
2023/09/10 02:03:59;;;;;;;;;11.50;10.00;;;;;27.54;41.58;101148.75;5056277;28;47180;-56
2023/09/10 02:06:24;;;;;;;;;10.00;10.00;;;;;27.52;41.97;101152.81;5055358;28;45761;-55
2023/09/10 02:08:50;;;;;;;;;4.25;4.00;;;;;27.51;42.09;101148.41;5056848;28;46381;-55
2023/09/10 02:11:15;;;;;;;;;13.25;11.00;;;;;27.36;41.86;101127.97;5055774;28;45583;-57
2023/09/10 02:13:41;;;;;;;;;13.00;10.00;;;;;27.40;42.04;101146.63;5056371;28;45865;-54
2023/09/10 02:16:06;;;;;;;;;10.25;10.00;;;;;27.36;42.16;101143.56;5055374;28;45317;-55
2023/09/10 02:18:32;;;;;;;;;7.25;6.75;;;;;27.31;42.48;101129.81;5056746;28;45402;-59
2023/09/10 02:20:57;;;;;;;;;10.00;10.00;;;;;27.28;42.55;101141.22;5056987;28;45310;-57
2023/09/10 02:23:22;;;;;;;;;11.00;11.00;;;;;27.25;42.39;101139.00;5056374;28;48858;-54
2023/09/10 02:25:48;;;;;;;;;14.25;9.00;;;;;27.17;42.82;101133.94;5054864;28;45296;-58
2023/09/10 02:28:13;;;;;;;;;11.50;11.50;;;;;27.18;42.99;101150.09;5056626;28;45426;-58
2023/09/10 02:30:38;;;;;;;;;12.75;10.00;;;;;27.16;43.06;101145.94;5056620;28;45373;-58
2023/09/10 02:35:38;;;;;;;;;10.20;8.60;;;;;27.14;42.88;101148.06;5152278;22;71688;-52
2023/09/10 02:38:04;;;;;;;;;10.50;10.00;;;;;27.11;43.02;101154.88;5036326;28;45225;-48
2023/09/10 02:40:29;;;;;;;;;10.50;9.50;;;;;27.11;42.85;101157.59;5036379;28;45414;-52
2023/09/10 02:42:55;;;;;;;;;10.75;10.75;;;;;27.05;42.93;101155.81;5036020;28;45357;-51
2023/09/10 02:45:20;;;;;;;;;14.00;10.75;;;;;27.07;43.09;101151.78;5035993;28;45484;-51
2023/09/10 02:47:45;;;;;;;;;11.50;10.50;;;;;27.08;43.14;101158.88;5035904;28;47569;-51
2023/09/10 02:50:10;;;;;;;;;12.75;10.00;;;;;27.08;43.14;101160.78;5036341;28;45302;-49
2023/09/10 02:52:36;;;;;;;;;10.50;9.75;;;;;27.04;42.93;101159.63;5036036;28;46078;-52
2023/09/10 02:55:02;;;;;;;;;9.75;7.25;;;;;26.98;43.51;101153.25;5036091;28;45404;-52
2023/09/10 02:57:27;;;;;;;;;14.00;10.00;;;;;26.97;43.09;101158.94;5036340;28;45328;-51
2023/09/10 02:59:52;;;;;;;;;10.75;10.00;;;;;26.94;43.59;101151.25;5036157;28;45331;-52
2023/09/10 03:02:17;;;;;;;;;11.00;9.75;;;;;26.96;43.67;101155.38;5035673;28;46394;-52
2023/09/10 03:04:43;;;;;;;;;10.75;9.75;;;;;26.92;43.54;101148.75;5035616;28;49753;-52
2023/09/10 03:07:08;;;;;;;;;12.00;10.00;;;;;26.91;43.62;101140.81;5035935;28;45464;-51
2023/09/10 03:09:33;;;;;;;;;13.25;10.00;;;;;26.86;44.00;101147.84;5036354;28;45299;-52
2023/09/10 03:12:25;;;;;;;;;13.75;11.75;;;;;26.85;43.27;101145.38;5035910;28;46880;-49
2023/09/10 03:14:50;;;;;;;;;13.00;11.40;;;;;26.82;43.55;101140.41;5035430;28;45512;-52
2023/09/10 03:17:17;;;;;;;;;11.75;10.00;;;;;26.79;43.27;101141.69;5035752;28;45401;-52
2023/09/10 03:19:43;;;;;;;;;14.00;10.40;;;;;26.73;44.17;101128.22;5035985;28;45802;-53
2023/09/10 03:22:08;;;;;;;;;12.00;10.25;;;;;26.66;43.92;101125.63;5035435;28;46114;-52
2023/09/10 03:24:34;;;;;;;;;12.50;10.50;;;;;26.72;43.78;101134.75;5035529;28;45395;-51
2023/09/10 03:26:59;;;;;;;;;10.50;10.00;;;;;26.72;44.51;101129.31;5037237;28;45360;-52
2023/09/10 03:29:25;;;;;;;;;11.50;11.00;;;;;26.65;44.16;101117.69;5039246;28;45460;-51
2023/09/10 03:31:51;;;;;;;;;9.20;8.80;;;;;26.69;44.40;101122.41;5039025;28;46677;-51
2023/09/10 03:34:16;;;;;;;;;9.25;9.25;;;;;26.66;44.41;101127.53;5038718;28;45247;-52
2023/09/10 03:36:41;;;;;;;;;11.50;10.00;;;;;26.65;44.59;101128.63;5039145;28;45470;-50
2023/09/10 03:39:07;;;;;;;;;10.75;10.75;;;;;26.62;44.28;101122.56;5039169;28;45425;-51
2023/09/10 03:41:32;;;;;;;;;29.00;23.00;;;;;26.63;44.43;101126.13;5038955;28;46196;-52
2023/09/10 03:43:59;;;;;;;;;14.25;13.00;;;;;26.61;44.58;101126.38;5038594;28;45957;-50
2023/09/10 03:46:25;;;;;;;;;16.20;12.40;;;;;26.57;44.86;101121.66;5038976;28;45354;-52
2023/09/10 03:48:50;;;;;;;;;34.75;27.25;;;;;26.57;44.90;101127.09;5037811;28;45418;-52
2023/09/10 03:51:16;;;;;;;;;14.75;13.50;;;;;26.56;44.45;101122.72;5037525;28;45525;-52
2023/09/10 03:53:41;;;;;;;;;16.25;16.25;;;;;26.55;44.96;101126.53;5038696;28;45388;-52
2023/09/10 03:56:07;;;;;;;;;14.50;13.75;;;;;26.50;44.59;101118.22;5038791;28;45383;-53
2023/09/10 03:58:32;;;;;;;;;27.50;25.25;;;;;26.49;44.56;101117.41;5038782;28;45409;-53
2023/09/10 04:00:58;;;;;;;;;27.75;23.50;;;;;26.46;44.71;101128.78;5038271;28;52559;-53
2023/09/10 04:03:25;;;;;;;;;16.50;16.50;;;;;26.42;45.37;101124.88;5038353;28;45756;-52
2023/09/10 04:05:51;;;;;;;;;19.20;17.40;;;;;26.42;45.04;101124.03;5038632;28;45390;-53
2023/09/10 04:08:17;;;;;;;;;13.80;11.40;;;;;26.38;44.31;101129.16;5038924;28;45339;-52
2023/09/10 04:10:42;;;;;;;;;14.00;13.75;;;;;26.35;44.92;101126.91;5038225;28;46283;-52
2023/09/10 04:13:08;;;;;;;;;12.75;12.50;;;;;26.32;44.72;101124.66;5038320;28;45438;-52
2023/09/10 04:15:33;;;;;;;;;12.25;12.00;;;;;26.33;45.40;101129.03;5037365;28;45349;-52
2023/09/10 04:17:58;;;;;;;;;13.75;12.50;;;;;26.30;45.02;101111.28;5038530;28;45377;-53
2023/09/10 04:20:24;;;;;;;;;14.75;13.00;;;;;26.31;45.39;101121.13;5038170;28;46117;-51
2023/09/10 04:22:49;;;;;;;;;15.25;11.25;;;;;26.34;45.48;101128.00;5038236;28;45279;-52
2023/09/10 04:25:14;;;;;;;;;15.00;11.75;;;;;26.30;45.27;101124.91;5038280;28;45439;-55
2023/09/10 04:27:40;;;;;;;;;13.50;13.50;;;;;26.23;45.01;101115.22;5038566;28;45433;-52
2023/09/10 04:30:06;;;;;;;;;14.25;12.00;;;;;26.26;45.85;101131.09;5037855;28;53254;-53
2023/09/10 04:32:31;;;;;;;;;13.80;12.40;;;;;26.15;44.94;101107.41;5038006;28;45377;-52
2023/09/10 04:34:56;;;;;;;;;13.50;13.50;;;;;26.24;44.89;101127.78;5038185;28;45650;-52
2023/09/10 04:37:22;;;;;;;;;10.75;10.75;;;;;26.21;45.54;101128.25;5038193;28;45410;-52
2023/09/10 04:39:47;;;;;;;;;16.25;11.75;;;;;26.18;45.46;101128.75;5036609;28;46181;-52
2023/09/10 04:42:12;;;;;;;;;15.75;12.00;;;;;26.15;45.43;101123.78;5037883;28;45401;-52
2023/09/10 04:44:38;;;;;;;;;14.75;13.75;;;;;26.09;45.96;101120.13;5037869;28;45337;-53
2023/09/10 04:47:03;;;;;;;;;16.75;11.25;;;;;26.12;45.63;101125.91;5038037;28;45403;-52
2023/09/10 04:49:29;;;;;;;;;15.00;12.75;;;;;26.04;45.82;101109.94;5037543;28;46052;-51
2023/09/10 04:51:54;;;;;;;;;15.50;15.50;;;;;26.07;45.53;101130.41;5037487;28;45792;-52
2023/09/10 04:54:20;;;;;;;;;13.25;10.25;;;;;26.01;45.57;101132.22;5037562;28;45393;-52
2023/09/10 04:56:47;;;;;;;;;17.75;14.50;;;;;26.01;46.32;101134.13;5037835;28;45309;-51
2023/09/10 04:59:13;;;;;;;;;12.80;11.00;;;;;26.00;46.17;101135.16;5036967;28;45389;-51
2023/09/10 05:01:38;;;;;;;;;14.75;13.25;;;;;25.96;46.04;101129.38;5037309;28;45692;-50
2023/09/10 05:04:04;;;;;;;;;18.50;14.75;;;;;25.93;45.59;101131.75;5037311;28;45389;-51
2023/09/10 05:06:29;;;;;;;;;19.75;16.00;;;;;25.90;45.67;101130.31;5037491;28;45363;-52
2023/09/10 05:08:55;;;;;;;;;13.50;11.75;;;;;25.90;45.97;101132.22;5037300;28;46724;-52
2023/09/10 05:11:20;;;;;;;;;14.50;13.50;;;;;25.87;46.19;101133.53;5037341;28;45525;-52
2023/09/10 05:13:45;;;;;;;;;11.00;11.00;;;;;25.85;46.19;101139.22;5037381;28;45805;-50
2023/09/10 05:16:11;;;;;;;;;10.00;10.00;;;;;25.80;45.74;101135.56;5037133;28;45503;-52
2023/09/10 05:18:36;;;;;;;;;15.25;14.00;;;;;25.76;46.07;101128.91;5035768;28;48035;-51
2023/09/10 05:21:02;;;;;;;;;13.75;11.25;;;;;25.71;45.92;101136.97;5037283;28;45414;-51
2023/09/10 05:23:28;;;;;;;;;14.20;12.40;;;;;25.74;46.58;101136.47;5037380;28;45424;-51
2023/09/10 05:25:54;;;;;;;;;13.00;13.00;;;;;25.74;46.57;101137.28;5037491;28;45400;-51
2023/09/10 05:28:19;;;;;;;;;12.00;12.00;;;;;25.76;45.72;101135.16;5037083;28;46095;-52
2023/09/10 05:30:44;;;;;;;;;13.00;10.75;;;;;25.76;45.74;101137.91;5036877;28;45436;-50
2023/09/10 05:33:10;;;;;;;;;10.75;10.75;;;;;25.77;46.18;101136.84;5037345;28;45369;-52
2023/09/10 05:35:35;;;;;;;;;15.50;13.50;;;;;25.75;45.65;101138.16;5037091;28;45468;-52
2023/09/10 05:38:01;;;;;;;;;14.50;13.00;;;;;25.75;45.72;101146.31;5036915;28;46217;-52
2023/09/10 05:40:27;;;;;;;;;16.00;14.00;;;;;25.68;45.89;101130.06;5036967;28;45302;-52
2023/09/10 05:42:52;;;;;;;;;15.00;10.25;;;;;25.76;46.11;101137.06;5037216;28;45460;-51
2023/09/10 05:45:19;;;;;;;;;15.75;12.75;;;;;25.77;46.29;101136.03;5037055;28;45368;-50
2023/09/10 05:47:44;;;;;;;;;15.60;13.60;;;;;25.76;46.17;101143.34;5036605;28;45459;-51
2023/09/10 05:50:10;;;;;;;;;16.50;13.25;;;;;25.79;46.23;101147.53;5036702;28;45415;-50
2023/09/10 05:52:35;;;;;;;;;16.00;16.00;;;;;25.79;46.12;101145.63;5036818;28;45354;-51
2023/09/10 05:55:01;;;;;;;;;14.25;13.00;;;;;25.77;45.87;101149.66;5036913;28;45417;-52
2023/09/10 05:57:26;;;;;;;;;16.25;12.00;;;;;25.80;46.11;101143.75;5036699;28;46174;-52
2023/09/10 05:59:52;;;;;;;;;13.75;12.25;;;;;25.81;46.00;101151.66;5036402;28;45389;-52
2023/09/10 06:02:17;;;;;;;;;15.50;14.00;;;;;25.81;45.98;101157.13;5035364;28;45547;-51
2023/09/10 06:04:42;;;;;;;;;15.00;12.50;;;;;25.83;45.69;101156.88;5036639;28;46187;-52
2023/09/10 06:07:08;;;;;;;;;12.00;12.00;;;;;25.84;46.09;101151.19;5036326;28;51913;-54
2023/09/10 06:09:33;;;;;;;;;10.50;10.50;;;;;25.92;45.69;101154.63;5036339;28;46461;-52
2023/09/10 06:12:00;;;;;;;;;12.50;12.00;;;;;25.96;45.73;101156.66;5036545;28;45384;-52
2023/09/10 06:14:26;;;;;;;;;15.50;11.50;;;;;26.04;45.30;101153.56;5036534;28;45341;-52
2023/09/10 06:16:51;;;;;;;;;13.50;11.75;;;;;26.10;45.45;101160.75;5036014;28;47237;-53
2023/09/10 06:19:16;;;;;;;;;18.25;16.25;;;;;26.18;45.15;101150.56;5036100;28;45325;-52
2023/09/10 06:21:42;;;;;;;;;15.25;13.50;;;;;26.19;44.99;101153.03;5036194;28;45565;-52
2023/09/10 06:24:07;;;;;;;;;15.50;12.50;;;;;26.20;45.37;101151.13;5036678;28;45752;-52
2023/09/10 06:26:33;;;;;;;;;12.75;11.50;;;;;26.25;45.49;101154.81;5035098;28;46564;-49
2023/09/10 06:29:00;;;;;;;;;13.50;11.00;;;;;26.24;45.00;101144.97;5035957;28;45361;-51
2023/09/10 06:31:25;;;;;;;;;14.20;10.80;;;;;26.36;44.61;101155.84;5035744;28;45373;-51
2023/09/10 06:33:50;;;;;;;;;12.25;11.25;;;;;26.39;44.84;101149.91;5036334;28;45344;-53
2023/09/10 06:36:16;;;;;;;;;12.00;10.50;;;;;26.42;44.18;101159.50;5036315;28;46245;-53
2023/09/10 06:38:47;;;;;;;;;10.50;10.25;;;;;26.41;44.32;101155.94;5036246;28;45481;-51
2023/09/10 06:41:14;;;;;;;;;18.00;13.00;;;;;26.40;44.40;101157.03;5036317;28;45574;-52
2023/09/10 06:43:39;;;;;;;;;14.00;12.00;;;;;26.48;44.19;101155.84;5036004;28;45434;-51
2023/09/10 06:46:05;;;;;;;;;14.50;11.50;;;;;26.55;44.32;101151.91;5036073;28;45954;-53
2023/09/10 06:48:31;;;;;;;;;14.00;14.00;;;;;26.64;43.95;101163.25;5036034;28;45393;-51
2023/09/10 06:51:00;;;;;;;;;11.50;11.50;;;;;26.65;43.86;101161.38;5035902;28;45412;-52
2023/09/10 06:53:26;;;;;;;;;15.20;11.20;;;;;26.61;44.08;101150.94;5036110;28;45406;-52
2023/09/10 06:55:51;;;;;;;;;11.25;10.25;;;;;26.76;44.33;101161.31;5035568;28;46326;-53
2023/09/10 06:58:17;;;;;;;;;15.75;11.75;;;;;26.86;43.78;101161.50;5035996;28;45195;-51
2023/09/10 07:00:42;;;;;;;;;12.25;11.25;;;;;26.94;43.90;101159.47;5035766;28;45510;-52
2023/09/10 07:03:08;;;;;;;;;15.00;11.75;;;;;27.03;43.75;101156.06;5039143;28;45325;-53
2023/09/10 07:05:33;;;;;;;;;14.00;11.75;;;;;27.17;43.58;101161.25;5039287;28;45865;-51
2023/09/10 07:07:59;;;;;;;;;15.75;11.25;;;;;27.25;43.00;101155.38;5039173;28;45300;-51
2023/09/10 07:10:24;;;;;;;;;15.25;13.25;;;;;27.33;42.69;101157.69;5039465;28;45335;-50
2023/09/10 07:12:50;;;;;;;;;11.00;10.50;;;;;27.49;42.42;101150.59;5039406;28;45366;-49
2023/09/10 07:15:15;;;;;;;;;13.25;10.50;;;;;27.77;42.11;101164.19;5038068;28;49034;-50
2023/09/10 07:17:40;;;;;;;;;13.50;10.00;;;;;28.52;40.45;101159.16;5039004;28;45528;-47
2023/09/10 07:20:06;;;;;;;;;18.50;13.50;;;;;29.36;39.37;101168.78;5039363;28;45583;-50
2023/09/10 07:22:32;;;;;;;;;12.80;11.00;;;;;29.97;38.18;101169.25;5039304;28;45326;-51
2023/09/10 07:24:57;;;;;;;;;15.25;12.25;;;;;30.40;37.12;101172.75;5038828;28;45997;-48
2023/09/10 07:27:23;;;;;;;;;10.75;8.25;;;;;30.85;36.89;101177.59;5038927;28;45409;-50
2023/09/10 07:29:48;;;;;;;;;18.50;12.50;;;;;31.26;36.76;101166.63;5038785;28;45421;-50
2023/09/10 07:32:14;;;;;;;;;15.00;12.00;;;;;31.72;35.60;101169.38;5039009;28;45557;-51
2023/09/10 07:34:39;;;;;;;;;15.00;11.75;;;;;32.32;34.30;101173.09;5038535;28;46061;-51
2023/09/10 07:37:04;;;;;;;;;15.00;13.00;;;;;32.96;33.93;101175.00;5038554;28;51565;-49
2023/09/10 07:39:30;;;;;;;;;18.75;17.50;;;;;33.72;32.18;101175.47;5037342;28;45442;-50
2023/09/10 07:41:56;;;;;;;;;13.80;13.00;;;;;34.73;31.11;101167.91;5038498;28;45490;-52
2023/09/10 07:44:21;;;;;;;;;12.00;11.75;;;;;35.52;29.49;101174.72;5038611;28;46287;-47
2023/09/10 07:46:47;;;;;;;;;19.25;14.25;;;;;35.77;29.86;101181.72;5038505;28;45342;-50
2023/09/10 07:49:12;;;;;;;;;14.00;11.00;;;;;34.93;30.43;101190.81;5038785;28;45208;-47
2023/09/10 07:51:38;;;;;;;;;14.00;12.25;;;;;34.28;31.52;101187.84;5038715;28;45365;-49
2023/09/10 07:54:04;;;;;;;;;15.60;13.40;;;;;33.84;32.89;101178.66;5037780;28;46368;-51
2023/09/10 07:56:29;;;;;;;;;7.75;6.00;;;;;34.17;32.03;101184.38;5038285;28;45173;-51
2023/09/10 07:58:55;;;;;;;;;14.75;13.00;;;;;35.69;29.17;101173.03;5038415;28;45354;-51
2023/09/10 08:01:20;;;;;;;;;14.00;11.75;;;;;37.05;27.97;101174.34;5038342;28;45441;-49
2023/09/10 08:03:45;;;;;;;;;14.25;12.00;;;;;38.10;26.23;101179.38;5037759;28;51831;-49
2023/09/10 08:06:11;;;;;;;;;9.50;8.00;;;;;38.88;26.91;101160.88;5038325;28;45353;-51
2023/09/10 08:08:36;;;;;;;;;10.00;9.00;;;;;39.49;24.60;101171.94;5038168;28;45504;-52
2023/09/10 08:11:01;;;;;;;;;12.50;11.00;;;;;40.04;24.55;101173.06;5038485;28;45361;-50
2023/09/10 08:13:27;;;;;;;;;10.00;10.00;;;;;40.00;24.08;101178.50;5038107;28;45657;-46
2023/09/10 08:15:52;;;;;;;;;7.75;5.50;;;;;39.91;24.13;101172.97;5038113;28;45468;-50
2023/09/10 08:18:18;;;;;;;;;12.75;11.75;;;;;39.70;23.91;101180.44;5038117;28;45479;-50
2023/09/10 08:20:43;;;;;;;;;10.00;10.00;;;;;39.79;24.04;101170.06;5038215;28;45371;-50
2023/09/10 08:23:09;;;;;;;;;11.00;9.50;;;;;40.30;23.64;101168.19;5037750;28;46140;-52
2023/09/10 08:25:35;;;;;;;;;10.50;10.50;;;;;40.57;23.34;101168.84;5037606;28;45482;-50
2023/09/10 08:28:01;;;;;;;;;9.40;9.00;;;;;40.43;22.86;101171.88;5037854;28;45453;-49
2023/09/10 08:30:27;;;;;;;;;11.80;8.80;;;;;40.65;22.87;101163.19;5037969;28;45286;-50
2023/09/10 08:32:53;;;;;;;;;11.00;9.20;;;;;40.69;22.50;101168.09;5037475;28;46172;-48
2023/09/10 08:35:19;;;;;;;;;11.50;10.25;;;;;41.12;22.49;101176.09;5037563;28;45355;-50
2023/09/10 08:37:45;;;;;;;;;10.20;9.40;;;;;41.11;22.28;101178.06;5037745;28;45343;-50
2023/09/10 08:40:11;;;;;;;;;12.00;10.00;;;;;40.98;22.52;101168.03;5037995;28;45186;-49
2023/09/10 08:43:03;;;;;;;;;11.00;10.00;;;;;40.71;23.77;101166.59;5037684;28;46269;-47
2023/09/10 08:45:28;;;;;;;;;11.60;7.20;;;;;40.29;24.82;101166.56;5037442;28;45342;-52
2023/09/10 08:47:55;;;;;;;;;15.75;10.25;;;;;40.11;23.31;101167.78;5037612;28;45881;-46
2023/09/10 08:50:22;;;;;;;;;14.20;10.20;;;;;39.97;23.75;101175.56;5037809;28;45434;-52
2023/09/10 08:52:49;;;;;;;;;10.20;9.20;;;;;40.03;23.55;101152.72;5037398;28;45391;-50
2023/09/10 08:55:14;;;;;;;;;11.40;10.20;;;;;40.20;23.21;101162.97;5037322;28;45288;-48
2023/09/10 08:57:41;;;;;;;;;13.50;9.50;;;;;40.43;23.50;101149.56;5037562;28;45324;-48
2023/09/10 09:00:12;;;;;;;;;9.40;8.80;;;;;40.76;23.14;101158.03;5037761;28;45335;-49
2023/09/10 09:02:47;;;;;;;;;10.40;9.00;;;;;41.26;22.96;101154.28;5037413;28;46022;-48
2023/09/10 09:05:12;;;;;;;;;8.80;8.80;;;;;41.84;22.40;101149.50;5037348;28;45410;-51
2023/09/10 09:07:51;;;;;;;;;10.00;10.00;;;;;42.07;21.42;101140.66;5037587;28;45469;-51
2023/09/10 09:10:23;;;;;;;;;11.20;8.40;;;;;42.32;21.07;101149.84;5037379;28;45438;-51
2023/09/10 09:12:54;;;;;;;;;12.00;10.40;;;;;42.68;21.13;101142.53;5037297;28;47548;-50
2023/09/10 09:15:20;;;;;;;;;10.80;9.80;;;;;43.06;20.37;101150.44;5037424;28;45408;-48
2023/09/10 09:17:46;;;;;;;;;8.80;8.80;;;;;43.57;19.50;101142.22;5037328;28;45492;-48
2023/09/10 09:20:16;;;;;;;;;9.00;9.00;;;;;44.83;18.85;101168.38;5037545;28;45434;-49
2023/09/10 09:22:45;;;;;;;;;8.00;7.80;;;;;46.66;16.83;101164.69;5037421;28;45352;-52
2023/09/10 09:25:10;;;;;;;;;10.20;8.00;;;;;48.12;15.93;101160.47;5036445;28;45750;-51
2023/09/10 09:27:37;;;;;;;;;10.75;7.00;;;;;49.16;15.17;101150.44;5037677;28;45310;-50
2023/09/10 09:30:06;;;;;;;;;9.60;9.00;;;;;50.35;14.61;101153.97;5037385;28;45514;-50
2023/09/10 09:32:38;;;;;;;;;13.00;10.60;;;;;51.03;14.42;101145.97;5036784;28;47084;-49
2023/09/10 09:35:05;;;;;;;;;11.00;9.20;;;;;51.42;13.41;101147.75;5037034;28;46953;-49
2023/09/10 09:37:32;;;;;;;;;12.60;9.60;;;;;52.08;13.75;101139.00;5036896;28;45355;-49
2023/09/10 09:39:59;;;;;;;;;11.40;10.40;;;;;52.95;12.94;101142.38;5037046;28;45323;-50
2023/09/10 09:42:24;;;;;;;;;11.60;10.20;;;;;53.86;12.38;101140.44;5035420;28;46645;-48
2023/09/10 09:44:50;;;;;;;;;11.00;10.25;;;;;54.44;12.41;101129.50;5036408;28;49913;-51
2023/09/10 09:47:16;;;;;;;;;14.40;13.00;;;;;55.16;11.57;101128.66;5036916;28;45460;-50
2023/09/10 09:49:45;;;;;;;;;12.50;11.25;;;;;55.65;11.34;101131.47;5037025;28;45430;-47
2023/09/10 09:52:14;;;;;;;;;11.40;9.80;;;;;56.19;12.00;101118.59;5036466;28;45924;-51
2023/09/10 09:54:39;;;;;;;;;10.40;9.20;;;;;56.62;11.46;101131.56;5036443;28;45416;-50
2023/09/10 09:57:05;;;;;;;;;11.25;10.00;;;;;57.17;10.33;101126.53;5035531;28;47254;-47
2023/09/10 09:59:35;;;;;;;;;10.20;8.40;;;;;57.39;10.83;101124.53;5036858;28;45570;-46
2023/09/10 10:02:00;;;;;;;;;9.80;9.60;;;;;57.80;10.70;101125.53;5036556;28;45436;-50
2023/09/10 10:04:26;;;;;;;;;11.25;9.50;;;;;57.83;9.81;101127.47;5036574;28;45344;-49
2023/09/10 10:06:51;;;;;;;;;11.50;9.50;;;;;58.34;9.38;101127.19;5036634;28;45285;-47
2023/09/10 10:09:19;;;;;;;;;9.50;9.50;;;;;58.59;9.96;101120.50;5036752;28;45371;-50
2023/09/10 10:11:44;;;;;;;;;8.40;8.40;;;;;58.57;9.92;101113.63;5036328;28;45385;-49
2023/09/10 10:14:11;;;;;;;;;11.00;9.25;;;;;58.76;10.07;101125.97;5036505;28;45358;-50
2023/09/10 10:16:37;;;;;;;;;9.80;8.00;;;;;59.02;9.62;101109.31;5036672;28;45370;-48
2023/09/10 10:19:03;;;;;;;;;9.80;9.80;;;;;58.89;9.44;101107.38;5036596;28;45386;-47
2023/09/10 10:21:29;;;;;;;;;9.75;9.50;;;;;59.30;9.41;101119.59;5036185;28;46073;-50
2023/09/10 10:23:56;;;;;;;;;10.80;10.00;;;;;59.35;9.13;101110.34;5035886;28;45416;-48
2023/09/10 10:26:24;;;;;;;;;9.40;9.40;;;;;59.78;9.64;101107.66;5036382;28;45537;-46
2023/09/10 10:28:50;;;;;;;;;9.20;9.20;;;;;59.68;8.29;101104.78;5036151;28;45563;-47
2023/09/10 10:31:17;;;;;;;;;5.00;5.00;;;;;59.78;9.11;101107.66;5035914;28;45921;-46
2023/09/10 10:34:03;;;;;;;;;8.40;8.40;;;;;59.78;10.08;101113.41;5035790;28;45325;-48
2023/09/10 10:37:05;;;;;;;;;8.20;8.00;;;;;59.62;8.79;101109.56;5034652;28;45438;-46
2023/09/10 10:39:59;;;;;;;;;10.40;10.40;;;;;59.48;9.21;101109.41;5036209;28;45830;-49
2023/09/10 10:42:46;;;;;;;;;8.20;8.20;;;;;59.30;9.45;101105.25;5035954;28;45234;-46
2023/09/10 10:45:15;;;;;;;;;9.60;9.60;;;;;59.64;8.67;101109.09;5035854;28;45402;-51
2023/09/10 10:47:42;;;;;;;;;8.20;7.40;;;;;59.82;8.74;101094.72;5036050;28;45346;-50
2023/09/10 10:50:10;;;;;;;;;8.60;8.60;;;;;59.55;8.74;101094.72;5035958;28;45298;-50
2023/09/10 10:52:41;;;;;;;;;10.00;7.80;;;;;59.58;8.48;101091.69;5035938;28;46438;-49
2023/09/10 10:55:07;;;;;;;;;14.20;11.20;;;;;59.37;8.35;101087.69;5034752;28;45426;-48
2023/09/10 10:57:34;;;;;;;;;9.20;9.20;;;;;59.10;8.65;101081.94;5035680;28;45412;-45
2023/09/10 11:00:03;;;;;;;;;10.20;10.20;;;;;59.17;8.72;101082.44;5035693;28;45488;-49
2023/09/10 11:02:28;;;;;;;;;12.60;11.20;;;;;59.31;9.05;101077.34;5033857;28;47732;-48
2023/09/10 11:04:54;;;;;;;;;12.25;9.75;;;;;59.61;8.92;101075.59;5035011;28;45480;-49
2023/09/10 11:07:20;;;;;;;;;8.80;7.80;;;;;59.82;8.61;101079.56;5034896;28;45480;-45
2023/09/10 11:09:47;;;;;;;;;11.25;10.00;;;;;59.59;8.57;101064.59;5035055;28;45444;-47
2023/09/10 11:12:14;;;;;;;;;10.80;9.60;;;;;59.90;8.00;101073.00;5034479;28;46188;-48
2023/09/10 11:14:58;;;;;;;;;10.00;8.60;;;;;59.71;9.12;101070.63;5034650;28;45477;-47
2023/09/10 11:17:25;;;;;;;;;10.00;10.00;;;;;59.62;8.92;101055.00;5035069;28;45397;-49